sensor_id;sensor_type;location;lat;lon;timestamp;pressure;altitude;pressure_sealevel;temperature;humidity
72921;BME280;61064;51.654;5.476;2023-05-24T00:00:39;102523.97;;;9.71;66.66
72921;BME280;61064;51.654;5.476;2023-05-24T00:03:05;102520.28;;;9.68;66.77
72921;BME280;61064;51.654;5.476;2023-05-24T00:05:31;102518.47;;;9.67;66.71
72921;BME280;61064;51.654;5.476;2023-05-24T00:07:57;102519.44;;;9.69;66.88
72921;BME280;61064;51.654;5.476;2023-05-24T00:10:23;102513.31;;;9.71;66.76
72921;BME280;61064;51.654;5.476;2023-05-24T00:12:48;102507.91;;;9.68;67.23
72921;BME280;61064;51.654;5.476;2023-05-24T00:15:14;102511.50;;;9.70;67.19
72921;BME280;61064;51.654;5.476;2023-05-24T00:17:39;102505.25;;;9.68;67.49
72921;BME280;61064;51.654;5.476;2023-05-24T00:20:10;102498.06;;;9.66;67.43
72921;BME280;61064;51.654;5.476;2023-05-24T00:22:40;102500.94;;;9.72;67.26
72921;BME280;61064;51.654;5.476;2023-05-24T00:25:06;102504.50;;;9.72;67.22
72921;BME280;61064;51.654;5.476;2023-05-24T00:27:31;102496.44;;;9.69;67.42
72921;BME280;61064;51.654;5.476;2023-05-24T00:29:57;102500.84;;;9.69;67.54
72921;BME280;61064;51.654;5.476;2023-05-24T00:32:22;102484.69;;;9.63;67.68
72921;BME280;61064;51.654;5.476;2023-05-24T00:34:48;102486.34;;;9.60;67.56
72921;BME280;61064;51.654;5.476;2023-05-24T00:37:13;102483.59;;;9.57;67.62
72921;BME280;61064;51.654;5.476;2023-05-24T00:39:39;102486.97;;;9.53;67.98
72921;BME280;61064;51.654;5.476;2023-05-24T00:42:04;102488.63;;;9.50;68.02
72921;BME280;61064;51.654;5.476;2023-05-24T00:44:30;102490.31;;;9.48;67.97
72921;BME280;61064;51.654;5.476;2023-05-24T00:46:55;102488.56;;;9.48;68.25
72921;BME280;61064;51.654;5.476;2023-05-24T00:49:21;102488.56;;;9.48;68.37
72921;BME280;61064;51.654;5.476;2023-05-24T00:51:49;102494.84;;;9.50;68.34
72921;BME280;61064;51.654;5.476;2023-05-24T00:54:15;102488.56;;;9.48;68.51
72921;BME280;61064;51.654;5.476;2023-05-24T00:56:42;102471.63;;;9.45;68.26
72921;BME280;61064;51.654;5.476;2023-05-24T00:59:07;102485.13;;;9.51;68.28
72921;BME280;61064;51.654;5.476;2023-05-24T01:01:33;102476.13;;;9.47;68.54
72921;BME280;61064;51.654;5.476;2023-05-24T01:03:59;102490.38;;;9.49;68.33
72921;BME280;61064;51.654;5.476;2023-05-24T01:06:26;102466.41;;;9.48;68.46
72921;BME280;61064;51.654;5.476;2023-05-24T01:11:52;102473.47;;;9.47;68.54
72921;BME280;61064;51.654;5.476;2023-05-24T01:14:28;102470.59;;;9.41;68.73
72921;BME280;61064;51.654;5.476;2023-05-24T01:17:05;102464.19;;;9.36;68.79
72921;BME280;61064;51.654;5.476;2023-05-24T01:25:13;102471.75;;;9.26;69.17
72921;BME280;61064;51.654;5.476;2023-05-24T01:27:42;102477.94;;;9.25;69.00
72921;BME280;61064;51.654;5.476;2023-05-24T01:30:08;102462.72;;;9.21;69.18
72921;BME280;61064;51.654;5.476;2023-05-24T01:32:34;102463.63;;;9.21;68.96
72921;BME280;61064;51.654;5.476;2023-05-24T01:34:59;102469.91;;;9.23;69.59
72921;BME280;61064;51.654;5.476;2023-05-24T01:37:24;102465.38;;;9.21;69.37
72921;BME280;61064;51.654;5.476;2023-05-24T01:39:50;102459.16;;;9.20;69.40
72921;BME280;61064;51.654;5.476;2023-05-24T01:42:23;102461.78;;;9.18;69.66
72921;BME280;61064;51.654;5.476;2023-05-24T01:44:59;102462.63;;;9.17;69.40
72921;BME280;61064;51.654;5.476;2023-05-24T01:49:53;102455.19;;;9.09;69.85
72921;BME280;61064;51.654;5.476;2023-05-24T01:52:22;102454.19;;;9.05;69.87
72921;BME280;61064;51.654;5.476;2023-05-24T01:54:52;102464.72;;;9.04;69.94
72921;BME280;61064;51.654;5.476;2023-05-24T01:57:21;102464.69;;;9.02;70.03
72921;BME280;61064;51.654;5.476;2023-05-24T01:59:48;102464.47;;;8.96;70.01
72921;BME280;61064;51.654;5.476;2023-05-24T02:02:14;102475.13;;;8.98;69.97
72921;BME280;61064;51.654;5.476;2023-05-24T02:04:39;102471.38;;;8.93;69.99
72921;BME280;61064;51.654;5.476;2023-05-24T02:07:05;102474.00;;;8.91;70.04
72921;BME280;61064;51.654;5.476;2023-05-24T02:09:31;102474.75;;;8.89;70.35
72921;BME280;61064;51.654;5.476;2023-05-24T02:11:56;102476.41;;;8.85;70.29
72921;BME280;61064;51.654;5.476;2023-05-24T02:14:22;102483.28;;;8.80;70.14
72921;BME280;61064;51.654;5.476;2023-05-24T02:16:48;102476.00;;;8.74;70.43
72921;BME280;61064;51.654;5.476;2023-05-24T02:19:15;102476.56;;;8.67;70.48
72921;BME280;61064;51.654;5.476;2023-05-24T02:21:41;102467.28;;;8.56;70.57
72921;BME280;61064;51.654;5.476;2023-05-24T02:24:07;102483.13;;;8.55;70.87
72921;BME280;61064;51.654;5.476;2023-05-24T02:26:35;102485.66;;;8.52;71.04
72921;BME280;61064;51.654;5.476;2023-05-24T02:29:01;102492.53;;;8.47;71.26
72921;BME280;61064;51.654;5.476;2023-05-24T02:31:26;102487.88;;;8.41;71.16
72921;BME280;61064;51.654;5.476;2023-05-24T02:33:56;102476.13;;;8.34;71.18
72921;BME280;61064;51.654;5.476;2023-05-24T02:36:22;102473.03;;;8.25;71.33
72921;BME280;61064;51.654;5.476;2023-05-24T02:38:49;102475.41;;;8.19;71.48
72921;BME280;61064;51.654;5.476;2023-05-24T02:41:15;102476.78;;;8.10;71.64
72921;BME280;61064;51.654;5.476;2023-05-24T02:43:45;102482.34;;;8.16;71.69
72921;BME280;61064;51.654;5.476;2023-05-24T02:46:11;102486.81;;;8.17;71.79
72921;BME280;61064;51.654;5.476;2023-05-24T02:48:37;102488.44;;;8.13;71.76
72921;BME280;61064;51.654;5.476;2023-05-24T02:51:02;102478.53;;;8.09;71.68
72921;BME280;61064;51.654;5.476;2023-05-24T02:53:28;102488.19;;;8.07;72.00
72921;BME280;61064;51.654;5.476;2023-05-24T02:55:54;102478.34;;;8.05;72.12
72921;BME280;61064;51.654;5.476;2023-05-24T02:58:19;102482.59;;;8.01;72.13
72921;BME280;61064;51.654;5.476;2023-05-24T03:00:45;102478.97;;;7.99;72.04
72921;BME280;61064;51.654;5.476;2023-05-24T03:03:11;102484.28;;;7.99;72.25
72921;BME280;61064;51.654;5.476;2023-05-24T03:05:36;102485.19;;;8.00;72.22
72921;BME280;61064;51.654;5.476;2023-05-24T03:08:01;102480.72;;;7.99;72.41
72921;BME280;61064;51.654;5.476;2023-05-24T03:10:27;102478.06;;;7.99;72.60
72921;BME280;61064;51.654;5.476;2023-05-24T03:12:52;102477.13;;;7.97;72.36
72921;BME280;61064;51.654;5.476;2023-05-24T03:15:18;102469.09;;;7.95;72.63
72921;BME280;61064;51.654;5.476;2023-05-24T03:17:43;102462.06;;;7.96;72.70
72921;BME280;61064;51.654;5.476;2023-05-24T03:20:09;102470.94;;;7.98;72.53
72921;BME280;61064;51.654;5.476;2023-05-24T03:22:35;102460.34;;;7.98;72.53
72921;BME280;61064;51.654;5.476;2023-05-24T03:25:01;102474.47;;;7.97;72.63
72921;BME280;61064;51.654;5.476;2023-05-24T03:27:26;102473.56;;;7.96;72.86
72921;BME280;61064;51.654;5.476;2023-05-24T03:29:51;102469.09;;;7.95;72.88
72921;BME280;61064;51.654;5.476;2023-05-24T03:32:17;102468.09;;;7.93;72.80
72921;BME280;61064;51.654;5.476;2023-05-24T03:34:42;102462.81;;;7.93;73.05
72921;BME280;61064;51.654;5.476;2023-05-24T03:37:08;102477.13;;;7.97;72.83
72921;BME280;61064;51.654;5.476;2023-05-24T03:39:33;102471.03;;;7.99;73.00
72921;BME280;61064;51.654;5.476;2023-05-24T03:41:58;102461.41;;;8.01;73.11
72921;BME280;61064;51.654;5.476;2023-05-24T03:44:24;102458.75;;;8.01;72.97
72921;BME280;61064;51.654;5.476;2023-05-24T03:46:50;102470.38;;;8.05;72.91
72921;BME280;61064;51.654;5.476;2023-05-24T03:49:15;102456.94;;;8.00;72.75
72921;BME280;61064;51.654;5.476;2023-05-24T03:51:40;102456.88;;;7.99;72.98
72921;BME280;61064;51.654;5.476;2023-05-24T03:54:06;102463.91;;;7.98;73.02
72921;BME280;61064;51.654;5.476;2023-05-24T03:56:31;102454.84;;;7.93;73.00
72921;BME280;61064;51.654;5.476;2023-05-24T03:58:56;102457.59;;;7.94;73.29
72921;BME280;61064;51.654;5.476;2023-05-24T04:01:24;102457.44;;;7.91;73.74
72921;BME280;61064;51.654;5.476;2023-05-24T04:03:50;102459.13;;;7.89;73.60
72921;BME280;61064;51.654;5.476;2023-05-24T04:06:16;102459.13;;;7.89;73.73
72921;BME280;61064;51.654;5.476;2023-05-24T04:08:42;102451.00;;;7.85;73.99
72921;BME280;61064;51.654;5.476;2023-05-24T04:11:08;102456.34;;;7.86;73.98
72921;BME280;61064;51.654;5.476;2023-05-24T04:13:33;102456.41;;;7.88;74.15
72921;BME280;61064;51.654;5.476;2023-05-24T04:15:58;102457.44;;;7.91;74.63
72921;BME280;61064;51.654;5.476;2023-05-24T04:18:27;102461.00;;;7.92;74.54
72921;BME280;61064;51.654;5.476;2023-05-24T04:20:52;102466.50;;;7.97;74.50
72921;BME280;61064;51.654;5.476;2023-05-24T04:23:17;102453.19;;;7.95;74.67
72921;BME280;61064;51.654;5.476;2023-05-24T04:25:43;102467.47;;;7.99;74.44
72921;BME280;61064;51.654;5.476;2023-05-24T04:28:11;102463.78;;;7.95;74.76
72921;BME280;61064;51.654;5.476;2023-05-24T04:30:37;102462.25;;;8.00;74.73
72921;BME280;61064;51.654;5.476;2023-05-24T04:33:02;102462.25;;;8.00;74.81
72921;BME280;61064;51.654;5.476;2023-05-24T04:35:28;102465.00;;;8.03;75.03
72921;BME280;61064;51.654;5.476;2023-05-24T04:37:54;102453.72;;;8.07;74.82
72921;BME280;61064;51.654;5.476;2023-05-24T04:40:19;102476.94;;;8.13;75.25
72921;BME280;61064;51.654;5.476;2023-05-24T04:42:45;102469.91;;;8.15;75.11
72921;BME280;61064;51.654;5.476;2023-05-24T04:45:11;102472.84;;;8.21;75.24
72921;BME280;61064;51.654;5.476;2023-05-24T04:47:36;102475.66;;;8.25;75.41
72921;BME280;61064;51.654;5.476;2023-05-24T04:50:02;102471.34;;;8.27;75.28
72921;BME280;61064;51.654;5.476;2023-05-24T04:52:27;102469.75;;;8.31;75.66
72921;BME280;61064;51.654;5.476;2023-05-24T04:54:54;102463.78;;;8.37;75.63
72921;BME280;61064;51.654;5.476;2023-05-24T04:57:20;102468.41;;;8.41;75.76
72921;BME280;61064;51.654;5.476;2023-05-24T04:59:45;102465.88;;;8.44;75.82
72921;BME280;61064;51.654;5.476;2023-05-24T05:02:10;102477.63;;;8.50;75.98
72921;BME280;61064;51.654;5.476;2023-05-24T05:04:36;102468.03;;;8.54;75.90
72921;BME280;61064;51.654;5.476;2023-05-24T05:07:01;102471.78;;;8.59;76.19
72921;BME280;61064;51.654;5.476;2023-05-24T05:09:27;102474.66;;;8.63;76.10
72921;BME280;61064;51.654;5.476;2023-05-24T05:11:53;102475.75;;;8.68;76.15
72921;BME280;61064;51.654;5.476;2023-05-24T05:14:18;102474.16;;;8.73;76.30
72921;BME280;61064;51.654;5.476;2023-05-24T05:16:44;102476.19;;;8.81;76.42
72921;BME280;61064;51.654;5.476;2023-05-24T05:19:10;102486.28;;;8.89;76.37
72921;BME280;61064;51.654;5.476;2023-05-24T05:21:35;102485.69;;;8.96;76.33
72921;BME280;61064;51.654;5.476;2023-05-24T05:24:03;102474.44;;;9.03;76.59
72921;BME280;61064;51.654;5.476;2023-05-24T05:26:29;102477.31;;;9.08;76.39
72921;BME280;61064;51.654;5.476;2023-05-24T05:28:56;102486.53;;;9.17;76.59
72921;BME280;61064;51.654;5.476;2023-05-24T05:31:22;102477.06;;;9.26;76.32
72921;BME280;61064;51.654;5.476;2023-05-24T05:33:48;102479.44;;;9.42;76.77
72921;BME280;61064;51.654;5.476;2023-05-24T05:36:14;102481.63;;;9.52;76.45
72921;BME280;61064;51.654;5.476;2023-05-24T05:38:40;102475.13;;;9.68;76.46
72921;BME280;61064;51.654;5.476;2023-05-24T05:41:05;102480.19;;;9.85;76.40
72921;BME280;61064;51.654;5.476;2023-05-24T05:43:31;102472.69;;;9.99;76.19
72921;BME280;61064;51.654;5.476;2023-05-24T05:45:56;102472.53;;;10.20;76.20
72921;BME280;61064;51.654;5.476;2023-05-24T05:48:22;102481.25;;;10.41;76.18
72921;BME280;61064;51.654;5.476;2023-05-24T05:50:47;102491.63;;;10.60;75.92
72921;BME280;61064;51.654;5.476;2023-05-24T05:53:14;102481.66;;;10.81;75.74
72921;BME280;61064;51.654;5.476;2023-05-24T05:55:39;102493.00;;;11.03;75.37
72921;BME280;61064;51.654;5.476;2023-05-24T05:58:05;102476.63;;;11.19;75.39
72921;BME280;61064;51.654;5.476;2023-05-24T06:00:30;102479.03;;;11.40;75.15
72921;BME280;61064;51.654;5.476;2023-05-24T06:02:55;102471.56;;;11.58;75.02
72921;BME280;61064;51.654;5.476;2023-05-24T06:05:21;102475.66;;;11.77;74.56
72921;BME280;61064;51.654;5.476;2023-05-24T06:07:46;102484.09;;;11.92;74.36
72921;BME280;61064;51.654;5.476;2023-05-24T06:10:12;102482.69;;;12.06;74.36
72921;BME280;61064;51.654;5.476;2023-05-24T06:12:37;102486.75;;;12.26;74.18
72921;BME280;61064;51.654;5.476;2023-05-24T06:15:05;102489.06;;;12.45;74.01
72921;BME280;61064;51.654;5.476;2023-05-24T06:17:32;102493.09;;;12.64;74.03
72921;BME280;61064;51.654;5.476;2023-05-24T06:19:58;102487.16;;;12.77;73.44
72921;BME280;61064;51.654;5.476;2023-05-24T06:22:24;102498.22;;;12.93;72.96
72921;BME280;61064;51.654;5.476;2023-05-24T06:24:52;102500.28;;;13.06;72.88
72921;BME280;61064;51.654;5.476;2023-05-24T06:27:18;102493.50;;;13.18;72.60
72921;BME280;61064;51.654;5.476;2023-05-24T06:29:43;102500.91;;;13.31;72.36
72921;BME280;61064;51.654;5.476;2023-05-24T06:32:08;102496.66;;;13.41;72.23
72921;BME280;61064;51.654;5.476;2023-05-24T06:34:34;102485.31;;;13.54;71.84
72921;BME280;61064;51.654;5.476;2023-05-24T06:36:59;102489.13;;;13.64;71.70
72921;BME280;61064;51.654;5.476;2023-05-24T06:39:26;102485.81;;;13.79;71.19
72921;BME280;61064;51.654;5.476;2023-05-24T06:41:52;102489.56;;;13.88;71.31
72921;BME280;61064;51.654;5.476;2023-05-24T06:44:18;102481.75;;;13.99;70.83
72921;BME280;61064;51.654;5.476;2023-05-24T06:46:43;102472.84;;;14.00;70.38
72921;BME280;61064;51.654;5.476;2023-05-24T06:49:12;102495.34;;;14.09;70.19
72921;BME280;61064;51.654;5.476;2023-05-24T06:51:38;102489.03;;;14.06;69.95
72921;BME280;61064;51.654;5.476;2023-05-24T06:54:03;102493.66;;;14.14;69.59
72921;BME280;61064;51.654;5.476;2023-05-24T06:56:28;102490.16;;;14.19;69.40
72921;BME280;61064;51.654;5.476;2023-05-24T06:58:54;102483.94;;;14.21;69.39
72921;BME280;61064;51.654;5.476;2023-05-24T07:01:20;102485.88;;;14.30;69.22
72921;BME280;61064;51.654;5.476;2023-05-24T07:03:46;102480.56;;;14.31;69.09
72921;BME280;61064;51.654;5.476;2023-05-24T07:06:11;102483.47;;;14.42;68.55
72921;BME280;61064;51.654;5.476;2023-05-24T07:08:39;102488.06;;;14.50;68.04
72921;BME280;61064;51.654;5.476;2023-05-24T07:11:06;102485.56;;;14.63;67.98
72921;BME280;61064;51.654;5.476;2023-05-24T07:13:32;102482.19;;;14.74;67.78
72921;BME280;61064;51.654;5.476;2023-05-24T07:15:57;102486.84;;;14.86;67.77
72921;BME280;61064;51.654;5.476;2023-05-24T07:18:22;102487.97;;;15.02;67.38
72921;BME280;61064;51.654;5.476;2023-05-24T07:20:48;102488.22;;;15.20;67.03
72921;BME280;61064;51.654;5.476;2023-05-24T07:23:13;102480.44;;;15.39;66.47
72921;BME280;61064;51.654;5.476;2023-05-24T07:25:39;102489.56;;;15.52;65.66
72921;BME280;61064;51.654;5.476;2023-05-24T07:28:04;102479.84;;;15.62;65.15
72921;BME280;61064;51.654;5.476;2023-05-24T07:30:30;102494.28;;;15.73;64.98
72921;BME280;61064;51.654;5.476;2023-05-24T07:32:55;102484.56;;;15.81;64.55
72921;BME280;61064;51.654;5.476;2023-05-24T07:35:21;102494.50;;;15.91;64.34
72921;BME280;61064;51.654;5.476;2023-05-24T07:37:48;102502.75;;;16.11;63.99
72921;BME280;61064;51.654;5.476;2023-05-24T07:40:13;102498.41;;;16.20;63.51
72921;BME280;61064;51.654;5.476;2023-05-24T07:42:39;102495.69;;;16.22;63.39
72921;BME280;61064;51.654;5.476;2023-05-24T07:45:06;102501.97;;;16.22;63.21
72921;BME280;61064;51.654;5.476;2023-05-24T07:47:35;102495.72;;;16.23;62.88
72921;BME280;61064;51.654;5.476;2023-05-24T07:50:01;102493.03;;;16.23;62.47
72921;BME280;61064;51.654;5.476;2023-05-24T07:52:27;102485.88;;;16.21;62.35
72921;BME280;61064;51.654;5.476;2023-05-24T07:54:53;102494.88;;;16.26;62.26
72921;BME280;61064;51.654;5.476;2023-05-24T07:57:19;102493.91;;;16.22;62.11
72921;BME280;61064;51.654;5.476;2023-05-24T07:59:44;102494.84;;;16.25;62.16
72921;BME280;61064;51.654;5.476;2023-05-24T08:02:10;102494.94;;;16.32;61.89
72921;BME280;61064;51.654;5.476;2023-05-24T08:04:38;102499.53;;;16.47;61.65
72921;BME280;61064;51.654;5.476;2023-05-24T08:07:03;102494.16;;;16.50;61.21
72921;BME280;61064;51.654;5.476;2023-05-24T08:09:29;102499.53;;;16.48;60.98
72921;BME280;61064;51.654;5.476;2023-05-24T08:12:00;102487.91;;;16.49;60.98
72921;BME280;61064;51.654;5.476;2023-05-24T08:14:25;102497.81;;;16.56;60.74
72921;BME280;61064;51.654;5.476;2023-05-24T08:16:50;102496.03;;;16.57;60.58
72921;BME280;61064;51.654;5.476;2023-05-24T08:19:16;102491.50;;;16.53;60.66
72921;BME280;61064;51.654;5.476;2023-05-24T08:21:41;102494.13;;;16.44;60.36
72921;BME280;61064;51.654;5.476;2023-05-24T08:24:07;102485.16;;;16.42;60.57
72921;BME280;61064;51.654;5.476;2023-05-24T08:26:33;102493.25;;;16.46;60.74
72921;BME280;61064;51.654;5.476;2023-05-24T08:28:58;102492.38;;;16.49;59.97
72921;BME280;61064;51.654;5.476;2023-05-24T08:31:24;102497.81;;;16.56;60.04
72921;BME280;61064;51.654;5.476;2023-05-24T08:33:49;102490.84;;;16.77;59.77
72921;BME280;61064;51.654;5.476;2023-05-24T08:36:18;102488.25;;;16.95;59.24
72921;BME280;61064;51.654;5.476;2023-05-24T08:38:43;102492.78;;;17.02;58.86
72921;BME280;61064;51.654;5.476;2023-05-24T08:41:10;102481.16;;;17.04;58.60
72921;BME280;61064;51.654;5.476;2023-05-24T08:43:37;102475.78;;;17.03;58.03
72921;BME280;61064;51.654;5.476;2023-05-24T08:46:04;102479.31;;;16.96;58.10
72921;BME280;61064;51.654;5.476;2023-05-24T08:48:31;102475.72;;;16.94;58.02
72921;BME280;61064;51.654;5.476;2023-05-24T08:50:57;102482.03;;;16.99;57.85
72921;BME280;61064;51.654;5.476;2023-05-24T08:53:23;102476.59;;;16.94;57.97
72921;BME280;61064;51.654;5.476;2023-05-24T08:55:49;102473.91;;;16.88;57.83
72921;BME280;61064;51.654;5.476;2023-05-24T08:58:18;102471.25;;;16.93;58.03
72921;BME280;61064;51.654;5.476;2023-05-24T09:00:43;102471.31;;;17.07;58.10
72921;BME280;61064;51.654;5.476;2023-05-24T09:03:09;102460.66;;;17.28;57.91
72921;BME280;61064;51.654;5.476;2023-05-24T09:05:36;102458.06;;;17.52;57.53
72921;BME280;61064;51.654;5.476;2023-05-24T09:08:02;102465.34;;;17.70;56.79
72921;BME280;61064;51.654;5.476;2023-05-24T09:10:28;102451.91;;;17.83;56.42
72921;BME280;61064;51.654;5.476;2023-05-24T09:12:57;102451.03;;;17.94;55.88
72921;BME280;61064;51.654;5.476;2023-05-24T09:15:22;102451.03;;;18.12;55.70
72921;BME280;61064;51.654;5.476;2023-05-24T09:17:48;102446.56;;;18.29;55.56
72921;BME280;61064;51.654;5.476;2023-05-24T09:20:13;102441.19;;;18.47;54.97
72921;BME280;61064;51.654;5.476;2023-05-24T09:22:42;102450.19;;;18.61;54.15
72921;BME280;61064;51.654;5.476;2023-05-24T09:25:08;102451.06;;;18.62;54.09
72921;BME280;61064;51.654;5.476;2023-05-24T09:27:35;102461.84;;;18.68;53.85
72921;BME280;61064;51.654;5.476;2023-05-24T09:30:01;102463.66;;;18.77;53.66
72921;BME280;61064;51.654;5.476;2023-05-24T09:32:29;102452.84;;;18.87;53.56
72921;BME280;61064;51.654;5.476;2023-05-24T09:34:57;102455.50;;;19.05;53.06
72921;BME280;61064;51.654;5.476;2023-05-24T09:37:24;102450.94;;;19.20;52.69
72921;BME280;61064;51.654;5.476;2023-05-24T09:39:52;102455.41;;;19.33;52.36
72921;BME280;61064;51.654;5.476;2023-05-24T09:42:24;102450.88;;;19.44;52.14
72921;BME280;61064;51.654;5.476;2023-05-24T09:45:02;102448.19;;;19.50;51.99
72921;BME280;61064;51.654;5.476;2023-05-24T09:47:34;102449.00;;;19.58;52.04
72921;BME280;61064;51.654;5.476;2023-05-24T09:50:00;102446.25;;;19.70;51.51
72921;BME280;61064;51.654;5.476;2023-05-24T09:52:35;102443.47;;;19.82;50.87
72921;BME280;61064;51.654;5.476;2023-05-24T09:55:16;102438.03;;;19.85;50.42
72921;BME280;61064;51.654;5.476;2023-05-24T09:58:01;102440.81;;;19.75;50.37
72921;BME280;61064;51.654;5.476;2023-05-24T10:00:27;102449.88;;;19.66;50.23
72921;BME280;61064;51.654;5.476;2023-05-24T10:03:04;102441.78;;;19.66;50.29
72921;BME280;61064;51.654;5.476;2023-05-24T10:05:34;102444.41;;;19.77;49.67
72921;BME280;61064;51.654;5.476;2023-05-24T10:08:01;102444.34;;;19.84;49.76
72921;BME280;61064;51.654;5.476;2023-05-24T10:10:31;102433.50;;;19.93;49.21
72921;BME280;61064;51.654;5.476;2023-05-24T10:12:58;102436.16;;;20.00;48.80
72921;BME280;61064;51.654;5.476;2023-05-24T10:15:24;102437.97;;;19.98;48.69
72921;BME280;61064;51.654;5.476;2023-05-24T10:17:52;102431.69;;;19.92;48.56
72921;BME280;61064;51.654;5.476;2023-05-24T10:20:18;102428.19;;;19.80;48.77
72921;BME280;61064;51.654;5.476;2023-05-24T10:22:46;102429.16;;;19.71;48.31
72921;BME280;61064;51.654;5.476;2023-05-24T10:25:23;102435.50;;;19.57;48.96
72921;BME280;61064;51.654;5.476;2023-05-24T10:27:57;102436.38;;;19.66;49.31
72921;BME280;61064;51.654;5.476;2023-05-24T10:30:36;102434.50;;;19.76;49.08
72921;BME280;61064;51.654;5.476;2023-05-24T10:33:06;102432.66;;;19.84;48.82
72921;BME280;61064;51.654;5.476;2023-05-24T10:35:34;102438.97;;;19.81;48.49
72921;BME280;61064;51.654;5.476;2023-05-24T10:38:06;102432.72;;;19.76;48.26
72921;BME280;61064;51.654;5.476;2023-05-24T10:40:33;102433.66;;;19.69;47.96
72921;BME280;61064;51.654;5.476;2023-05-24T10:43:03;102431.97;;;19.48;47.95
72921;BME280;61064;51.654;5.476;2023-05-24T10:45:31;102436.53;;;19.27;48.16
72921;BME280;61064;51.654;5.476;2023-05-24T10:50:41;102444.72;;;19.02;48.55
72921;BME280;61064;51.654;5.476;2023-05-24T10:53:21;102438.47;;;18.88;48.68
72921;BME280;61064;51.654;5.476;2023-05-24T10:55:52;102442.06;;;18.78;48.77
72921;BME280;61064;51.654;5.476;2023-05-24T10:58:19;102437.59;;;18.76;48.97
72921;BME280;61064;51.654;5.476;2023-05-24T11:00:45;102439.41;;;18.71;49.44
72921;BME280;61064;51.654;5.476;2023-05-24T11:03:13;102434.94;;;18.60;49.30
72921;BME280;61064;51.654;5.476;2023-05-24T11:05:52;102427.72;;;18.56;49.27
72921;BME280;61064;51.654;5.476;2023-05-24T11:10:48;102434.91;;;18.48;49.76
72921;BME280;61064;51.654;5.476;2023-05-24T11:13:14;102434.91;;;18.44;49.72
72921;BME280;61064;51.654;5.476;2023-05-24T11:15:49;102448.38;;;18.42;49.78
72921;BME280;61064;51.654;5.476;2023-05-24T11:18:16;102445.69;;;18.44;49.89
72921;BME280;61064;51.654;5.476;2023-05-24T11:20:44;102443.91;;;18.44;50.12
72921;BME280;61064;51.654;5.476;2023-05-24T11:23:14;102440.28;;;18.50;50.06
72921;BME280;61064;51.654;5.476;2023-05-24T11:25:40;102434.88;;;18.53;50.10
72921;BME280;61064;51.654;5.476;2023-05-24T11:28:07;102437.59;;;18.65;50.07
72921;BME280;61064;51.654;5.476;2023-05-24T11:30:42;102430.41;;;18.76;49.61
72921;BME280;61064;51.654;5.476;2023-05-24T11:33:20;102429.47;;;18.86;49.77
72921;BME280;61064;51.654;5.476;2023-05-24T11:35:50;102424.94;;;19.05;49.45
72921;BME280;61064;51.654;5.476;2023-05-24T11:38:16;102433.88;;;19.21;49.13
72921;BME280;61064;51.654;5.476;2023-05-24T11:40:43;102432.88;;;19.35;48.78
72921;BME280;61064;51.654;5.476;2023-05-24T11:43:16;102427.47;;;19.46;48.82
72921;BME280;61064;51.654;5.476;2023-05-24T11:45:47;102431.00;;;19.60;48.54
72921;BME280;61064;51.654;5.476;2023-05-24T11:48:13;102428.22;;;19.74;48.61
72921;BME280;61064;51.654;5.476;2023-05-24T11:50:42;102418.28;;;19.80;48.32
72921;BME280;61064;51.654;5.476;2023-05-24T11:53:12;102422.75;;;19.84;48.12
72921;BME280;61064;51.654;5.476;2023-05-24T11:55:39;102428.06;;;19.95;47.92
72921;BME280;61064;51.654;5.476;2023-05-24T11:58:10;102423.59;;;19.94;47.95
72921;BME280;61064;51.654;5.476;2023-05-24T12:00:36;102422.66;;;19.97;47.97
72921;BME280;61064;51.654;5.476;2023-05-24T12:03:02;102420.91;;;19.94;47.88
72921;BME280;61064;51.654;5.476;2023-05-24T12:05:31;102414.56;;;19.98;47.89
72921;BME280;61064;51.654;5.476;2023-05-24T12:08:04;102422.66;;;19.97;47.56
72921;BME280;61064;51.654;5.476;2023-05-24T12:10:37;102417.28;;;19.90;47.68
72921;BME280;61064;51.654;5.476;2023-05-24T12:13:03;102406.56;;;19.81;47.38
72921;BME280;61064;51.654;5.476;2023-05-24T12:15:29;102418.28;;;19.79;47.57
72921;BME280;61064;51.654;5.476;2023-05-24T12:17:55;102421.88;;;19.79;47.79
72921;BME280;61064;51.654;5.476;2023-05-24T12:20:22;102420.00;;;19.90;47.69
72921;BME280;61064;51.654;5.476;2023-05-24T12:22:52;102421.78;;;19.95;47.43
72921;BME280;61064;51.654;5.476;2023-05-24T12:25:18;102410.09;;;19.91;47.30
72921;BME280;61064;51.654;5.476;2023-05-24T12:27:51;102412.78;;;19.94;47.13
72921;BME280;61064;51.654;5.476;2023-05-24T12:30:26;102392.13;;;19.85;47.10
72921;BME280;61064;51.654;5.476;2023-05-24T12:32:52;102410.09;;;19.89;47.36
72921;BME280;61064;51.654;5.476;2023-05-24T12:35:19;102400.22;;;19.85;47.08
72921;BME280;61064;51.654;5.476;2023-05-24T12:37:45;102409.28;;;19.78;47.36
72921;BME280;61064;51.654;5.476;2023-05-24T12:40:31;102420.06;;;19.78;47.65
72921;BME280;61064;51.654;5.476;2023-05-24T12:42:58;102417.41;;;19.75;47.56
72921;BME280;61064;51.654;5.476;2023-05-24T12:45:24;102401.25;;;19.71;47.63
72921;BME280;61064;51.654;5.476;2023-05-24T12:47:51;102407.50;;;19.73;47.90
72921;BME280;61064;51.654;5.476;2023-05-24T12:50:21;102410.13;;;19.85;47.86
72921;BME280;61064;51.654;5.476;2023-05-24T12:52:47;102417.22;;;20.03;47.45
72921;BME280;61064;51.654;5.476;2023-05-24T12:55:13;102409.97;;;20.06;47.26
72921;BME280;61064;51.654;5.476;2023-05-24T12:57:42;102410.88;;;20.10;47.22
72921;BME280;61064;51.654;5.476;2023-05-24T13:00:09;102409.97;;;20.11;47.13
72921;BME280;61064;51.654;5.476;2023-05-24T13:02:36;102410.84;;;20.11;47.20
72921;BME280;61064;51.654;5.476;2023-05-24T13:05:02;102415.38;;;20.08;47.18
72921;BME280;61064;51.654;5.476;2023-05-24T13:07:29;102404.66;;;19.96;47.33
72921;BME280;61064;51.654;5.476;2023-05-24T13:09:55;102416.41;;;19.93;47.30